»·PEaware :: DAL4990 KLAX-KSFO

DAL4990 :: KLAX-KSFO

FLIGHT INFORMATION

Flight Status: Arrived
Operator:
Delta Air Lines
More flights by this operator :: More flights under this callsign
Pilot: Jac C. (16067)
Aircraft: BOEING 737-800
(B738)
More flights by this aircraft type
Origin: KLAX Los Angeles Intl
United States
Destination: KSFO San Francisco Intl
United States
More flights between these airports :: More routes between these airports
Route: +SUMMR1 STOKD SERFR SERFR2
File this flight plan on PilotEdge
Remarks:
Altitude:
(Current/Filed)
36,000ft
Speed:
(Current/Filed)
439kts
Departed: 17-Feb-18 01:07 PM
Arrived: 17-Feb-18 02:02 PM
Distance/Time
Traveled:
294nm/0:55
Distance/Time
To Go:
Arrived

Flight Plot

Page will automatically refresh every two minutes.

Flight plan parsing failed; only flown route is shown


Map Options




Map Legend


Flown Route
Filed Route
Departure Airport
Arrival Airport
Navaid (VOR, NDB)
Fix

Horizontal Profiles

Position Reports

Time Latitude Longitude Heading Altitude Ground
Speed
17-Feb-18 12:39 33.941822 -118.406512 262 134ft 0kts
17-Feb-18 12:40 33.941822 -118.406512 262 134ft 0kts
17-Feb-18 12:41 33.941822 -118.406512 262 134ft 0kts
17-Feb-18 12:42 33.941822 -118.406512 262 134ft 0kts
17-Feb-18 12:43 33.941822 -118.406512 262 134ft 0kts
17-Feb-18 12:44 33.941822 -118.406512 262 134ft 0kts
17-Feb-18 12:45 33.941822 -118.406512 262 134ft 0kts
17-Feb-18 12:46 33.941822 -118.406512 262 134ft 0kts
17-Feb-18 12:47 33.941822 -118.406512 262 134ft 0kts
17-Feb-18 12:48 33.941822 -118.406512 262 134ft 0kts
17-Feb-18 12:49 33.941822 -118.406512 262 134ft 0kts
17-Feb-18 12:50 33.941822 -118.406512 262 134ft 0kts
17-Feb-18 12:51 33.941822 -118.406512 262 134ft 0kts
17-Feb-18 12:52 33.941822 -118.406512 262 134ft 0kts
17-Feb-18 12:53 33.941822 -118.406512 262 134ft 0kts
17-Feb-18 12:54 33.941822 -118.406512 262 134ft 0kts
17-Feb-18 12:55 33.941822 -118.406512 262 134ft 0kts
17-Feb-18 12:56 33.941822 -118.406512 262 134ft 0kts
17-Feb-18 12:57 33.941822 -118.406512 262 134ft 0kts
17-Feb-18 12:58 33.941879 -118.405948 262 134ft 2kts
17-Feb-18 12:59 33.941921 -118.405542 262 134ft 0kts
17-Feb-18 13:00 33.941921 -118.405542 262 134ft 0kts
17-Feb-18 13:01 33.941921 -118.405542 262 134ft 0kts
17-Feb-18 13:02 33.941921 -118.405542 262 134ft 0kts
17-Feb-18 13:03 33.941921 -118.405542 262 134ft 0kts
17-Feb-18 13:04 33.941921 -118.405542 262 134ft 0kts
17-Feb-18 13:05 33.941921 -118.405542 262 134ft 0kts
17-Feb-18 13:06 33.941921 -118.405542 262 134ft 0kts
17-Feb-18 13:07 33.941548 -118.405811 177 134ft 10kts
17-Feb-18 13:08 33.939030 -118.405448 173 134ft 10kts
17-Feb-18 13:09 33.938563 -118.401938 82 134ft 20kts
17-Feb-18 13:10 33.939237 -118.395452 81 134ft 10kts
17-Feb-18 13:11 33.939672 -118.391248 82 134ft 15kts
17-Feb-18 13:12 33.940324 -118.384939 82 134ft 22kts
17-Feb-18 13:13 33.940686 -118.380871 103 134ft 0kts
17-Feb-18 13:14 33.939376 -118.384651 261 134ft 77kts
17-Feb-18 13:15 33.933979 -118.437319 262 2010ft 192kts
17-Feb-18 13:16 33.927372 -118.512541 264 2955ft 260kts
17-Feb-18 13:17 33.920180 -118.599258 264 6780ft 252kts
17-Feb-18 13:18 33.917220 -118.685850 270 9904ft 266kts
17-Feb-18 13:19 33.917175 -118.783395 269 11724ft 319kts
17-Feb-18 13:20 33.918647 -118.892249 272 14322ft 329kts
17-Feb-18 13:21 33.924322 -119.004373 282 17211ft 344kts
17-Feb-18 13:22 33.960584 -119.091210 300 19400ft 359kts
17-Feb-18 13:23 34.019824 -119.191095 314 21796ft 377kts
17-Feb-18 13:24 34.105595 -119.268690 321 22988ft 390kts
17-Feb-18 13:25 34.194406 -119.344858 321 24091ft 393kts
17-Feb-18 13:26 34.284778 -119.422878 321 25984ft 405kts
17-Feb-18 13:27 34.377682 -119.503461 321 27665ft 417kts
17-Feb-18 13:28 34.464753 -119.597909 311 29153ft 424kts
17-Feb-18 13:29 34.547855 -119.700739 311 30742ft 426kts
17-Feb-18 13:30 34.630365 -119.802952 311 32758ft 414kts
17-Feb-18 13:31 34.710493 -119.901911 311 33986ft 414kts
17-Feb-18 13:32 34.790375 -120.000983 311 33997ft 408kts
17-Feb-18 13:33 34.870000 -120.100048 311 33997ft 408kts
17-Feb-18 13:34 34.949271 -120.198901 311 33996ft 408kts
17-Feb-18 13:35 35.028301 -120.298135 311 33996ft 408kts
17-Feb-18 13:36 35.108204 -120.397023 314 33998ft 409kts
17-Feb-18 13:37 35.192351 -120.490460 315 33996ft 409kts
17-Feb-18 13:38 35.276533 -120.584497 315 33996ft 409kts
17-Feb-18 13:39 35.360227 -120.678619 314 33997ft 409kts
17-Feb-18 13:40 35.443664 -120.773067 314 33996ft 409kts
17-Feb-18 13:41 35.530680 -120.863587 320 33996ft 411kts
17-Feb-18 13:42 35.622137 -120.947384 320 33997ft 410kts
17-Feb-18 13:43 35.712633 -121.031467 319 33984ft 406kts
17-Feb-18 13:44 35.800313 -121.113114 319 32675ft 388kts
17-Feb-18 13:45 35.885247 -121.192251 319 31112ft 378kts
17-Feb-18 13:46 35.968159 -121.270182 319 29610ft 369kts
17-Feb-18 13:47 36.048737 -121.346154 319 28126ft 360kts
17-Feb-18 13:48 36.130980 -121.414568 324 26660ft 353kts
17-Feb-18 13:49 36.213615 -121.478344 324 25206ft 345kts
17-Feb-18 13:50 36.295463 -121.541901 324 23643ft 340kts
17-Feb-18 13:51 36.374191 -121.603678 323 22286ft 332kts
17-Feb-18 13:52 36.456932 -121.668872 324 22001ft 372kts
17-Feb-18 13:53 36.544427 -121.737766 324 21996ft 372kts
17-Feb-18 13:54 36.631253 -121.806529 324 21153ft 367kts
17-Feb-18 13:55 36.718386 -121.875473 326 18655ft 374kts
17-Feb-18 13:56 36.815815 -121.915257 344 16155ft 361kts
17-Feb-18 13:57 36.911649 -121.941709 343 13648ft 343kts
17-Feb-18 13:58 37.001739 -121.971250 338 11310ft 324kts
17-Feb-18 13:59 37.086479 -122.005201 338 9906ft 315kts
17-Feb-18 14:00 37.168996 -122.037715 338 8611ft 312kts
17-Feb-18 14:01 37.250218 -122.069624 338 7795ft 293kts
17-Feb-18 14:02 37.322808 -122.098182 338 7663ft 263kts
17-Feb-18 14:03 37.395124 -122.125935 342 5972ft 277kts
17-Feb-18 14:04 37.463465 -122.149138 341 5775ft 230kts
17-Feb-18 14:05 37.526269 -122.171891 333 4028ft 249kts
17-Feb-18 14:06 37.564593 -122.246084 297 1975ft 255kts
17-Feb-18 14:07 37.596623 -122.322401 297 702ft 230kts
17-Feb-18 14:08 37.619982 -122.378287 295 21ft 103kts
17-Feb-18 14:09 37.622132 -122.386093 207 21ft 12kts
17-Feb-18 14:10 37.620666 -122.387668 208 21ft 0kts

Navigation Log

Ident Type
Flight plan parsing failed, navigation log unavailable